Nearby METAR Reports

 

KHIF - Hill Afb/Ogden, Utah, USA
Distance from station: ENE 6mi, 9km
Updated: Sun, 18-Nov-2018 7:58am MST
Clear
Clear
 Wind from ESE
Wind: ESE 15 mph , 24 km/h
Temperature: 25°F , -4°C
Wind Chill: 13°F , -11°C
Dew Point: 18°F , -8°C
Humidity: 74%
Barometer: 30.31 inHg , 1026.4 hPa
Clouds: Clear
Visibility: 10 miles , 16 km
2018/11/18 14:58 KHIF 181458Z AUTO 11013KT 10SM CLR M04/M08 A3031 RMK AO2 SLP281 T10411084 50008
KOGD - Ogden, Utah, USA
Distance from station: NNE 9mi, 14km
Updated: Sun, 18-Nov-2018 7:53am MST
Clear
Clear
 Wind from S
Wind: S 7 mph , 11 km/h
Temperature: 25°F , -4°C
Wind Chill: 17°F , -8°C
Dew Point: 18°F , -8°C
Humidity: 74%
Barometer: 30.32 inHg , 1026.8 hPa
Clouds: Clear
Visibility: 10 miles , 16 km
2018/11/18 14:53 KOGD 181453Z 17006KT 10SM CLR M04/M08 A3032 RMK AO2 SLP283 T10391078 52009
 
KSLC - Salt Lake City, Utah, USA
Distance from station: SSE 21mi, 34km
Updated: Sun, 18-Nov-2018 7:54am MST
Few Clouds
Few Clouds
 Wind from SSE
Wind: SSE 9 mph , 15 km/h
Temperature: 25°F , -4°C
Wind Chill: 16°F , -9°C
Dew Point: 21°F , -6°C
Humidity: 86%
Barometer: 30.32 inHg , 1026.8 hPa
Clouds: Few Clouds
Visibility: 10 miles , 16 km
Cloud details: Few Clouds 3000 ft
2018/11/18 14:54 KSLC 181454Z 15008KT 10SM FEW030 M04/M06 A3032 RMK AO2 SLP283 T10391056 51007
KLGU - Logan, Utah, USA
Distance from station: NNE 50mi, 80km
Updated: Sun, 18-Nov-2018 7:51am MST
Clear
Clear
 Wind from S
Wind: S 3 mph , 6 km/h
Temperature: 18°F , -8°C
Dew Point: 12°F , -11°C
Humidity: 79%
Barometer: 30.35 inHg , 1027.8 hPa
Clouds: Clear
Visibility: 10 miles , 16 km
2018/11/18 14:51 KLGU 181451Z AUTO 19003KT 10SM CLR M08/M11 A3035 RMK AO2 SLP314 T10781106 53005
 
K36U - Heber/Russ Mcdon, Utah, USA
Distance from station: SE 53mi, 85km
Updated: Wed, 11-Oct-2017 6:50pm MDT
NOT Current
Clear
Clear
 Wind from SSW
Wind: SSW 10 mph , 17 km/h, Gust: 18 mph , 30 km/h
Temperature: 63°F , 17°C
Dew Point: 16°F , -9°C
Humidity: 16%
Barometer: 29.87 inHg , 1011.5 hPa
Clouds: Clear
Visibility: 10 miles , 16 km
2017/10/12 00:50 K36U 120050Z AUTO 21009G16KT 10SM CLR 17/M09 A2987 RMK AO2
KEVW - Evanston, Wyoming, USA
Distance from station: ENE 55mi, 89km
Updated: Sun, 18-Nov-2018 7:53am MST
Clear
Clear
 Wind from SSE
Wind: SSE 5 mph , 7 km/h
Temperature: 10°F , -12°C
Wind Chill: 1°F , -17°C
Dew Point: 7°F , -14°C
Humidity: 85%
Barometer: 30.25 inHg , 1024.4 hPa
Clouds: Clear
Visibility: 10 miles , 16 km
2018/11/18 14:53 KEVW 181453Z AUTO 16004KT 10SM CLR M12/M14 A3025 RMK AO2 SLP301 T11221139 55001
 
KPVU - Provo Muni, Utah, USA
Distance from station: SSE 62mi, 100km
Updated: Sun, 18-Nov-2018 7:58am MST
Mostly cloudy
Mostly cloudy
 Wind from calm
Wind: Calm
Temperature: 28°F , -2°C
Dew Point: 27°F , -3°C
Humidity: 93%
Barometer: 30.34 inHg , 1027.4 hPa
Clouds: Mostly cloudy
Visibility: 10 miles , 16 km
Cloud details: Partly cloudy 1300 ft
Mostly cloudy 2000 ft
2018/11/18 14:58 KPVU 181458Z COR 00000KT 10SM SCT013 BKN020 M02/M03 A3034 RMK AO2 SLP293 T10221028 51009
KDPG - Dugway Prvg Grou, Utah, USA
Distance from station: SW 75mi, 121km
Updated: Thu, 15-Nov-2018 4:55pm MST
NOT Current
Mostly cloudy
Mostly cloudy
 Wind from NW
Wind: NW 3 mph , 6 km/h
Temperature: 21°F , -6°C
Dew Point: 16°F , -9°C
Humidity: 80%
Barometer: 30.27 inHg , 1025.1 hPa
Clouds: Mostly cloudy
Visibility: 35 miles , 56 km
Cloud details: Mostly cloudy 22000 ft
Mostly cloudy 25000 ft
2018/11/15 23:55 KDPG 152355Z 31003KT 35SM BKN220 BKN250 M06/M09 A3027 RMK SLP262 LAST T00621094
 
KENV - Wendover (aut), Utah, USA
Distance from station: WSW 105mi, 169km
Updated: Sun, 18-Nov-2018 7:56am MST
Clear
Clear
 Wind from NNE
Wind: NNE 5 mph , 7 km/h
Temperature: 18°F , -8°C
Wind Chill: 11°F , -12°C
Dew Point: 12°F , -11°C
Humidity: 79%
Barometer: 30.34 inHg , 1027.4 hPa
Clouds: Clear
Visibility: 10 miles , 16 km
2018/11/18 14:56 KENV 181456Z AUTO 03004KT 10SM CLR M08/M11 A3034 RMK AO2 SLP309 T10831111 51008 FZRANO
KPUC - Price, Utah, USA
Distance from station: SE 123mi, 197km
Updated: Sun, 18-Nov-2018 7:53am MST
Clear
Clear
 Wind from NNE
Wind: NNE 9 mph , 15 km/h
Temperature: 30°F , -1°C
Wind Chill: 22°F , -6°C
Dew Point: 18°F , -8°C
Humidity: 59%
Barometer: 30.26 inHg , 1024.7 hPa
Clouds: Clear
Visibility: 10 miles , 16 km
2018/11/18 14:53 KPUC 181453Z AUTO 03008KT 10SM CLR M01/M08 A3026 RMK AO2 SLP275 T10111078 53010
 
KPIH - Pocatello, Idaho, USA
Distance from station: NNW 130mi, 208km
Updated: Sun, 18-Nov-2018 7:53am MST
Clear
Clear
 Wind from WNW
Wind: WNW 3 mph , 6 km/h
Temperature: 12°F , -11°C
Dew Point: 9°F , -13°C
Humidity: 85%
Barometer: 30.32 inHg , 1026.8 hPa
Clouds: Clear
Visibility: 10 miles , 16 km
2018/11/18 14:53 KPIH 181453Z 30003KT 10SM CLR M11/M13 A3032 RMK AO2 SLP319 T11061128 53002 $
KBYI - Burley, Idaho, USA
Distance from station: NW 134mi, 216km
Updated: Sun, 18-Nov-2018 7:53am MST
Clear
Clear
 Wind from N
Wind: N 3 mph , 6 km/h
Temperature: 19°F , -7°C
Dew Point: 16°F , -9°C
Humidity: 86%
Barometer: 30.30 inHg , 1026.1 hPa
Clouds: Clear
Visibility: 10 miles , 16 km
2018/11/18 14:53 KBYI 181453Z AUTO 36003KT 10SM CLR M07/M09 A3030 RMK AO2 SLP293 I1000 I3000 T10671094 53001
 
KVEL - Vernal, Utah, USA
Distance from station: ESE 140mi, 226km
Updated: Sun, 18-Nov-2018 7:53am MST
Overcast
Overcast
 Wind from S
Wind: S 3 mph , 6 km/h
Temperature: 27°F , -3°C
Dew Point: 19°F , -7°C
Humidity: 74%
Barometer: 30.32 inHg , 1026.8 hPa
Clouds: Overcast
Visibility: 10 miles , 16 km
Cloud details: Overcast 3700 ft
2018/11/18 14:53 KVEL 181453Z AUTO 19003KT 10SM OVC037 M03/M07 A3032 RMK AO2 SLP289 T10281072 51007
KBPI - Big Piney, Wyoming, USA
Distance from station: NE 145mi, 234km
Updated: Sun, 18-Nov-2018 7:53am MST
Overcast
Overcast
 Wind from E
Wind: E 3 mph , 6 km/h
Temperature: 9°F , -13°C
Dew Point: 7°F , -14°C
Humidity: 92%
Barometer: 30.25 inHg , 1024.4 hPa
Clouds: Overcast
Visibility: 10 miles , 16 km
Cloud details: Overcast 300 ft
2018/11/18 14:53 KBPI 181453Z AUTO 10003KT 10SM OVC003 M13/M14 A3025 RMK AO2 SLP319 T11281144 56003